Time;durP1;ratioP1;P1;durP2;ratioP2;P2;SDS_P1;SDS_P2;PMS_P1;PMS_P2;Temp;Humidity;BMP_temperature;BMP_pressure;BME280_temperature;BME280_humidity;BME280_pressure;Samples;Min_cycle;Max_cycle;Signal;HPM_P1;HPM_P2
2022/08/30 00:02:44;;;;;;;10.30;5.53;;;;;;;23.04;87.37;99957.78;4270614;33;35178;-80
2022/08/30 00:05:32;;;;;;;8.45;5.28;;;;;;;23.03;87.38;99949.81;4270708;33;35611;-80
2022/08/30 00:08:18;;;;;;;8.40;5.32;;;;;;;23.06;87.52;99943.44;4270982;33;34973;-80
2022/08/30 00:11:08;;;;;;;9.45;5.62;;;;;;;22.93;88.60;99945.69;4270022;33;35573;-80
2022/08/30 00:13:55;;;;;;;8.93;5.20;;;;;;;22.99;87.97;99946.16;4270849;33;34242;-80
2022/08/30 00:16:41;;;;;;;9.20;5.47;;;;;;;23.10;87.39;99956.22;4270832;33;34685;-80
2022/08/30 00:19:28;;;;;;;7.82;5.53;;;;;;;23.02;87.97;99948.97;4270765;33;36041;-80
2022/08/30 00:22:14;;;;;;;8.20;5.80;;;;;;;23.17;86.52;99949.09;4259704;33;35446;-80
2022/08/30 00:25:00;;;;;;;8.48;5.43;;;;;;;22.80;88.57;99953.59;4270974;33;34251;-80
2022/08/30 00:27:47;;;;;;;7.57;5.53;;;;;;;23.03;88.15;99949.81;4258725;33;35242;-79
2022/08/30 00:30:36;;;;;;;7.78;5.60;;;;;;;23.26;86.21;99947.56;4271083;33;34485;-79
2022/08/30 00:33:23;;;;;;;10.25;5.75;;;;;;;23.34;85.93;99952.03;4270869;33;35682;-79
2022/08/30 00:36:09;;;;;;;7.35;5.35;;;;;;;23.32;85.95;99948.81;4259098;33;34013;-79
2022/08/30 00:38:55;;;;;;;9.55;5.78;;;;;;;23.47;84.64;99948.88;4269831;33;34766;-79
2022/08/30 00:41:42;;;;;;;7.43;5.30;;;;;;;23.17;86.25;99952.72;4270869;33;36070;-79
2022/08/30 00:44:28;;;;;;;10.35;6.15;;;;;;;23.13;86.85;99952.66;4270721;33;34681;-79
2022/08/30 00:47:14;;;;;;;8.25;5.20;;;;;;;22.95;87.62;99950.91;4259823;33;35163;-80
2022/08/30 00:50:01;;;;;;;8.27;5.72;;;;;;;22.83;88.28;99952.03;4259872;33;34764;-80
2022/08/30 00:52:49;;;;;;;8.02;5.50;;;;;;;23.14;86.77;99950.69;4259701;33;34447;-80
2022/08/30 00:55:36;;;;;;;8.48;5.80;;;;;;;23.03;87.01;99953.41;4258987;33;34550;-80
2022/08/30 00:58:30;;;;;;;7.18;5.65;;;;;;;23.17;86.40;99958.28;4270382;33;34159;-80
2022/08/30 01:01:17;;;;;;;8.32;6.00;;;;;;;22.92;87.43;99960.88;4258732;33;34754;-80
2022/08/30 01:04:05;;;;;;;9.80;5.85;;;;;;;22.62;89.18;99952.63;4258507;33;36054;-80
2022/08/30 01:06:52;;;;;;;9.63;6.05;;;;;;;22.90;88.32;99952.06;4258524;33;34662;-80
2022/08/30 01:09:38;;;;;;;8.00;6.35;;;;;;;23.25;85.13;99945.97;4270269;33;35112;-80
2022/08/30 01:12:24;;;;;;;7.85;5.82;;;;;;;23.13;85.22;99941.47;4259525;33;34676;-80
2022/08/30 01:15:13;;;;;;;7.75;5.40;;;;;;;22.99;85.59;99943.38;4270389;33;35041;-79
2022/08/30 01:18:01;;;;;;;9.43;6.15;;;;;;;23.18;85.02;99945.13;4249638;33;35578;-80
2022/08/30 01:21:09;;;;;;;8.05;6.22;;;;;;;23.20;85.38;99943.53;4270557;33;35642;-80
2022/08/30 01:23:57;;;;;;;9.45;5.80;;;;;;;22.86;87.04;99940.06;4249071;33;35285;-80
2022/08/30 01:26:43;;;;;;;7.43;5.72;;;;;;;22.79;87.76;99935.19;4270286;33;34750;-80
2022/08/30 01:29:29;;;;;;;10.20;5.80;;;;;;;22.74;88.05;99937.56;4270090;33;35755;-80
2022/08/30 01:32:25;;;;;;;8.75;5.80;;;;;;;22.27;91.05;99948.28;4259150;33;34460;-80
2022/08/30 01:35:16;;;;;;;10.90;6.00;;;;;;;22.28;91.25;99944.31;4270044;33;33737;-80
2022/08/30 01:38:04;;;;;;;7.82;5.93;;;;;;;22.55;90.12;99944.19;4266314;33;34603;-80
2022/08/30 01:40:56;;;;;;;9.85;6.05;;;;;;;22.22;93.42;99946.63;4259249;33;34138;-80
2022/08/30 01:43:43;;;;;;;7.57;5.78;;;;;;;22.99;87.77;99944.19;4259336;33;34702;-80
2022/08/30 01:46:35;;;;;;;10.18;5.37;;;;;;;23.10;87.03;99944.25;4259086;33;34255;-80
2022/08/30 01:49:21;;;;;;;7.80;5.43;;;;;;;22.97;87.42;99940.16;4269806;33;35004;-80
2022/08/30 01:52:13;;;;;;;;;;;;;;;22.78;88.87;99944.00;4270324;33;35216;-80
2022/08/30 01:55:00;;;;;;;10.35;5.80;;;;;;;22.71;88.72;99933.53;4270130;33;33925;-80
2022/08/30 01:57:48;;;;;;;8.32;5.70;;;;;;;22.81;87.62;99924.47;4269590;33;36247;-80
2022/08/30 02:00:34;;;;;;;8.50;5.68;;;;;;;22.73;87.71;99925.59;4259157;33;34669;-80
2022/08/30 02:03:21;;;;;;;7.87;5.40;;;;;;;22.85;87.21;99932.84;4269843;33;34687;-80
2022/08/30 02:06:11;;;;;;;11.05;5.95;;;;;;;22.88;86.59;99927.31;4269264;33;34271;-80
2022/08/30 02:08:58;;;;;;;8.20;5.85;;;;;;;22.45;89.05;99938.13;4259478;33;34234;-80
2022/08/30 02:11:46;;;;;;;9.80;6.07;;;;;;;22.43;89.46;99934.09;4271482;33;35918;-80
2022/08/30 02:14:34;;;;;;;7.68;5.68;;;;;;;22.59;89.08;99931.03;4259796;33;34742;-80
2022/08/30 02:17:21;;;;;;;9.90;6.37;;;;;;;21.73;93.59;99932.87;4260728;33;34205;-80
2022/08/30 02:20:08;;;;;;;9.27;6.55;;;;;;;21.34;97.10;99922.81;4271604;33;34302;-79
2022/08/30 02:22:55;;;;;;;7.18;5.45;;;;;;;21.86;94.65;99934.25;4250766;33;35956;-80
2022/08/30 02:25:46;;;;;;;9.00;6.15;;;;;;;22.26;91.69;99931.94;4271926;33;34949;-80
2022/08/30 02:28:32;;;;;;;9.35;6.03;;;;;;;22.39;89.86;99931.25;4271910;33;33320;-80
2022/08/30 02:31:19;;;;;;;8.60;5.78;;;;;;;22.23;90.88;99936.31;4261045;33;34229;-80
2022/08/30 02:34:06;;;;;;;10.52;5.45;;;;;;;22.31;91.10;99932.37;4271317;33;35039;-80
2022/08/30 02:36:52;;;;;;;8.55;5.95;;;;;;;22.47;89.76;99931.34;4271435;33;34558;-80
2022/08/30 02:39:39;;;;;;;7.70;5.75;;;;;;;22.13;91.49;99929.38;4271166;33;33945;-80
2022/08/30 02:42:25;;;;;;;9.75;5.95;;;;;;;22.29;90.00;99934.75;4271540;33;34727;-80
2022/08/30 02:45:11;;;;;;;8.57;6.22;;;;;;;22.00;92.19;99939.22;4271400;33;35945;-80
2022/08/30 02:47:57;;;;;;;7.75;5.75;;;;;;;21.46;95.23;99938.53;4271544;33;34932;-80
2022/08/30 02:50:46;;;;;;;8.60;6.28;;;;;;;21.28;100.00;99937.44;4260766;33;33775;-80
2022/08/30 02:53:33;;;;;;;9.80;6.20;;;;;;;21.71;96.94;99940.81;4271507;33;34688;-79
2022/08/30 02:56:19;;;;;;;14.40;7.55;;;;;;;22.17;93.02;99929.41;4271161;33;36896;-80
2022/08/30 02:59:05;;;;;;;8.60;5.90;;;;;;;22.08;93.44;99928.91;4271478;33;35489;-80
2022/08/30 03:01:52;;;;;;;8.57;6.43;;;;;;;21.72;95.62;99934.88;4270381;33;34229;-79
2022/08/30 03:04:38;;;;;;;9.93;6.53;;;;;;;21.16;99.77;99935.66;4270785;33;35570;-80
2022/08/30 03:07:24;;;;;;;9.13;6.57;;;;;;;21.73;96.42;99930.91;4271120;33;36035;-80
2022/08/30 03:10:11;;;;;;;11.68;6.78;;;;;;;21.89;95.39;99933.50;4270955;33;34670;-80
2022/08/30 03:12:59;;;;;;;9.63;6.95;;;;;;;21.66;95.90;99935.56;4260449;33;35056;-80
2022/08/30 03:15:44;;;;;;;9.30;6.82;;;;;;;21.52;96.62;99941.78;4271534;33;34666;-80
2022/08/30 03:18:32;;;;;;;9.63;7.30;;;;;;;21.93;94.19;99934.31;4270578;33;33884;-80
2022/08/30 03:21:18;;;;;;;10.95;6.70;;;;;;;21.66;95.55;99941.97;4260623;33;35767;-80
2022/08/30 03:24:04;;;;;;;8.82;6.70;;;;;;;21.85;93.86;99943.00;4257590;33;35276;-80
2022/08/30 03:26:52;;;;;;;8.95;6.70;;;;;;;21.88;93.31;99942.22;4260400;33;35598;-80
2022/08/30 03:29:38;;;;;;;9.10;6.70;;;;;;;21.98;92.39;99942.38;4271702;33;35725;-80
2022/08/30 03:32:24;;;;;;;11.20;7.15;;;;;;;22.09;91.77;99947.28;4271264;33;35497;-79
2022/08/30 03:35:12;;;;;;;9.20;6.80;;;;;;;21.85;92.78;99952.16;4270035;33;33746;-80
2022/08/30 03:37:58;;;;;;;10.10;6.97;;;;;;;21.56;93.47;99960.16;4270622;33;34286;-80
2022/08/30 03:40:45;;;;;;;10.50;7.50;;;;;;;21.83;93.47;99962.91;4270938;33;34946;-80
2022/08/30 03:43:32;;;;;;;10.65;7.20;;;;;;;21.14;96.71;99957.53;4271875;33;35598;-80
2022/08/30 03:46:19;;;;;;;11.05;7.47;;;;;;;21.75;93.87;99961.22;4271096;33;34169;-80
2022/08/30 03:49:11;;;;;;;9.70;7.07;;;;;;;21.49;94.79;99971.22;4271002;33;34603;-80
2022/08/30 03:51:58;;;;;;;9.68;7.45;;;;;;;21.54;95.14;99962.53;4271080;33;36046;-80
2022/08/30 03:54:44;;;;;;;11.48;7.60;;;;;;;21.47;94.65;99973.56;4269012;33;34521;-79
2022/08/30 03:57:31;;;;;;;12.27;7.30;;;;;;;21.68;93.73;99964.69;4269596;33;34250;-77
2022/08/30 04:00:19;;;;;;;9.77;7.05;;;;;;;21.32;94.72;99964.19;4269558;33;35281;-78
2022/08/30 04:03:06;;;;;;;14.43;8.18;;;;;;;21.02;96.62;99961.31;4258284;33;36069;-77
2022/08/30 04:05:53;;;;;;;10.80;7.55;;;;;;;21.42;94.29;99965.53;4269841;33;33084;-78
2022/08/30 04:08:42;;;;;;;13.57;7.82;;;;;;;20.98;97.71;99966.03;4271175;33;33279;-78
2022/08/30 04:11:30;;;;;;;11.75;8.10;;;;;;;21.28;95.76;99973.66;4260078;33;34527;-78
2022/08/30 04:14:17;;;;;;;10.38;7.93;;;;;;;20.94;97.10;99967.16;4259101;33;36491;-78
2022/08/30 04:17:03;;;;;;;11.75;7.40;;;;;;;20.84;98.03;99979.72;4249999;33;34292;-78
2022/08/30 04:19:49;;;;;;;11.02;8.43;;;;;;;21.13;96.38;99992.13;4255404;33;34372;-78
2022/08/30 04:22:36;;;;;;;9.70;7.70;;;;;;;20.32;100.00;99995.03;4268821;33;35540;-79
2022/08/30 04:25:22;;;;;;;11.23;8.32;;;;;;;20.72;100.00;99999.38;4270563;33;34560;-78
2022/08/30 04:28:09;;;;;;;11.32;8.23;;;;;;;20.95;98.33;99996.62;4269135;33;34671;-78
2022/08/30 04:30:56;;;;;;;11.55;8.68;;;;;;;20.60;100.00;100017.09;4269593;33;34285;-79
2022/08/30 04:33:43;;;;;;;12.18;8.65;;;;;;;19.88;100.00;100010.06;4267875;33;34667;-78
2022/08/30 04:36:29;;;;;;;11.55;8.90;;;;;;;20.33;100.00;100016.16;4259682;33;34853;-78
2022/08/30 04:39:19;;;;;;;10.82;8.35;;;;;;;20.85;100.00;100023.91;4268241;33;34716;-81
2022/08/30 04:42:05;;;;;;;14.05;7.57;;;;;;;20.95;99.43;100022.50;4270658;33;34018;-82
2022/08/30 04:44:52;;;;;;;10.48;7.97;;;;;;;21.26;98.52;100031.75;4259528;33;35248;-82
2022/08/30 04:47:38;;;;;;;13.35;8.73;;;;;;;21.09;99.33;100033.87;4270731;33;34973;-82
2022/08/30 04:50:25;;;;;;;12.18;8.18;;;;;;;20.81;100.00;100033.37;4270609;33;34581;-81
2022/08/30 04:53:12;;;;;;;13.30;8.02;;;;;;;20.87;100.00;100043.03;4253169;33;34245;-76
2022/08/30 04:55:59;;;;;;;12.63;8.40;;;;;;;20.69;100.00;100039.12;4269313;33;34311;-79
2022/08/30 04:58:46;;;;;;;13.38;8.38;;;;;;;20.53;100.00;100039.22;4268944;33;34984;-79
2022/08/30 05:01:32;;;;;;;12.13;8.48;;;;;;;20.87;100.00;100040.25;4269290;33;34142;-81
2022/08/30 05:04:30;;;;;;;13.25;8.70;;;;;;;20.61;100.00;100041.78;4270084;33;35171;-78
2022/08/30 05:07:17;;;;;;;13.13;8.27;;;;;;;20.76;100.00;100045.62;4270181;33;34706;-79
2022/08/30 05:10:04;;;;;;;13.13;8.85;;;;;;;20.71;100.00;100042.34;4258643;33;36231;-79
2022/08/30 05:12:55;;;;;;;12.95;8.20;;;;;;;20.58;100.00;100048.09;4259355;33;34846;-79
2022/08/30 05:15:43;;;;;;;15.15;8.50;;;;;;;20.30;100.00;100058.63;4269284;33;34412;-79
2022/08/30 05:18:29;;;;;;;13.40;8.23;;;;;;;20.33;100.00;100060.69;4258457;33;34591;-78
2022/08/30 05:21:19;;;;;;;12.02;7.90;;;;;;;20.66;100.00;100046.22;4269474;33;35070;-79
2022/08/30 05:24:05;;;;;;;14.55;9.07;;;;;;;20.60;100.00;100058.84;4248580;33;34341;-79
2022/08/30 05:26:52;;;;;;;12.02;7.90;;;;;;;20.56;100.00;100058.78;4269915;33;34242;-80
2022/08/30 05:29:38;;;;;;;10.13;7.35;;;;;;;21.49;100.00;100051.28;4269707;33;34378;-78
2022/08/30 05:32:24;;;;;;;14.60;8.43;;;;;;;21.96;97.64;100056.31;4268017;33;35083;-76
2022/08/30 05:35:11;;;;;;;11.80;7.90;;;;;;;21.21;100.00;100048.78;4269682;33;34620;-76
2022/08/30 05:37:58;;;;;;;12.37;7.53;;;;;;;21.34;100.00;100047.41;4257936;33;34166;-77
2022/08/30 05:40:44;;;;;;;10.60;7.10;;;;;;;22.18;95.99;100053.84;4268783;33;34644;-75
2022/08/30 05:43:31;;;;;;;14.52;8.30;;;;;;;22.33;95.79;100055.62;4258289;33;35964;-74
2022/08/30 05:46:18;;;;;;;15.73;8.60;;;;;;;22.06;97.74;100054.03;4271207;33;34301;-76
2022/08/30 05:49:06;;;;;;;12.68;8.32;;;;;;;22.14;97.69;100053.78;4272544;33;35347;-77
2022/08/30 05:51:52;;;;;;;10.63;7.87;;;;;;;22.16;97.81;100053.38;4271779;33;35198;-77
2022/08/30 05:54:38;;;;;;;13.32;8.65;;;;;;;22.40;96.04;100057.72;4270280;33;34639;-78
2022/08/30 05:57:25;;;;;;;11.57;8.23;;;;;;;22.36;95.71;100057.66;4270737;33;34701;-78
2022/08/30 06:00:16;;;;;;;13.62;8.73;;;;;;;22.73;93.75;100059.66;4256818;33;35164;-78
2022/08/30 06:03:03;;;;;;;11.80;7.35;;;;;;;22.62;94.56;100059.53;4263974;33;36611;-78
2022/08/30 06:05:49;;;;;;;13.75;8.25;;;;;;;23.00;92.08;100056.78;4259253;33;35243;-79
2022/08/30 06:08:37;;;;;;;9.05;6.90;;;;;;;22.95;91.30;100065.47;4270940;33;34879;-79
2022/08/30 06:11:25;;;;;;;10.93;7.45;;;;;;;23.06;90.35;100063.63;4270564;33;33969;-78
2022/08/30 06:14:12;;;;;;;13.73;6.70;;;;;;;22.02;91.29;100068.75;4270558;33;34283;-79
2022/08/30 06:16:59;;;;;;;9.82;6.32;;;;;;;22.49;89.62;100068.59;4257763;33;35899;-79
2022/08/30 06:19:45;;;;;;;13.60;6.72;;;;;;;22.89;85.11;100071.41;4270532;33;34650;-78
2022/08/30 06:22:31;;;;;;;10.02;6.25;;;;;;;22.93;82.30;100070.63;4269736;33;34318;-78
2022/08/30 06:25:18;;;;;;;7.75;5.72;;;;;;;22.68;79.53;100071.16;4269839;33;33738;-76
2022/08/30 06:28:05;;;;;;;10.05;5.82;;;;;;;23.23;78.33;100068.56;4271088;33;36013;-78
2022/08/30 06:30:52;;;;;;;7.75;5.53;;;;;;;23.48;73.50;100059.53;4270364;33;34690;-79
2022/08/30 06:33:39;;;;;;;8.70;5.60;;;;;;;23.72;67.88;100070.13;4260021;33;33723;-79
2022/08/30 06:36:25;;;;;;;11.38;5.40;;;;;;;23.88;67.95;100063.44;4270610;33;35690;-76
2022/08/30 06:39:12;;;;;;;7.57;5.12;;;;;;;23.75;67.71;100062.97;4271024;33;36058;-77
2022/08/30 06:41:58;;;;;;;8.40;5.28;;;;;;;23.95;66.70;100066.28;4270137;33;34651;-77
2022/08/30 06:44:44;;;;;;;9.40;6.47;;;;;;;23.82;66.42;100068.59;4269928;33;34265;-76
2022/08/30 06:47:31;;;;;;;10.25;5.60;;;;;;;23.75;67.90;100062.97;4253461;33;34689;-76
2022/08/30 06:50:17;;;;;;;11.60;6.03;;;;;;;24.17;66.30;100065.19;4268709;33;35528;-79
2022/08/30 06:53:04;;;;;;;11.57;5.97;;;;;;;24.39;66.39;100062.47;4258594;33;34175;-79
2022/08/30 06:56:10;;;;;;;11.52;5.47;;;;;;;24.43;65.96;100068.94;4269889;33;34186;-77
2022/08/30 06:59:01;;;;;;;8.35;5.65;;;;;;;24.31;64.46;100070.06;4270731;33;34746;-75
2022/08/30 07:01:48;;;;;;;9.02;5.47;;;;;;;24.50;63.25;100068.16;4269368;33;35014;-77
2022/08/30 07:04:34;;;;;;;11.05;5.20;;;;;;;24.56;64.56;100078.59;4270978;33;35487;-77
2022/08/30 07:07:22;;;;;;;11.50;5.40;;;;;;;24.58;64.50;100073.38;4270266;33;34425;-77
2022/08/30 07:10:09;;;;;;;8.10;5.47;;;;;;;24.36;63.25;100080.87;4269736;33;34686;-79
2022/08/30 07:12:55;;;;;;;9.10;5.32;;;;;;;25.07;62.11;100091.50;4269955;33;34894;-76
2022/08/30 07:15:43;;;;;;;10.38;4.95;;;;;;;24.96;62.63;100075.84;4270627;33;35483;-77
2022/08/30 07:21:37;;;;;;;9.57;5.55;;;;;;;25.32;57.78;100080.31;4270095;33;35617;-79
2022/08/30 07:24:23;;;;;;;10.35;5.60;;;;;;;25.76;55.49;100081.91;4268750;33;35400;-80
2022/08/30 07:27:10;;;;;;;11.07;5.50;;;;;;;25.99;55.54;100078.66;4270083;33;35151;-79
2022/08/30 07:29:57;;;;;;;7.90;5.28;;;;;;;25.31;58.78;100083.53;4260147;33;35032;-80
2022/08/30 07:32:43;;;;;;;9.02;5.22;;;;;;;25.42;58.28;100087.16;4258237;33;35228;-80
2022/08/30 07:35:30;;;;;;;7.87;5.45;;;;;;;25.57;58.46;100087.94;4270118;33;36059;-80
2022/08/30 07:38:17;;;;;;;8.00;4.78;;;;;;;25.24;56.13;100086.31;4258429;33;35446;-80
2022/08/30 07:41:04;;;;;;;6.87;4.57;;;;;;;25.08;56.25;100093.09;4270277;33;33814;-77
2022/08/30 07:43:50;;;;;;;7.07;5.03;;;;;;;26.14;55.58;100095.47;4270623;33;34690;-77
2022/08/30 07:46:38;;;;;;;8.10;4.87;;;;;;;24.81;55.15;100097.44;4258732;33;36012;-78
2022/08/30 07:49:25;;;;;;;8.55;5.25;;;;;;;24.32;57.69;100096.06;4270007;33;34787;-76
2022/08/30 07:52:11;;;;;;;7.70;4.90;;;;;;;25.48;56.16;100091.16;4270493;33;34174;-77
2022/08/30 07:54:58;;;;;;;7.62;5.30;;;;;;;25.99;55.82;100086.28;4266913;33;34669;-76
2022/08/30 07:57:44;;;;;;;11.88;5.70;;;;;;;25.75;58.08;100097.13;4270879;33;34529;-77
2022/08/30 08:00:30;;;;;;;6.05;4.53;;;;;;;25.48;56.38;100093.94;4259607;33;34800;-76
2022/08/30 08:03:16;;;;;;;7.35;4.95;;;;;;;26.09;53.65;100093.06;4270884;33;35301;-77
2022/08/30 08:06:04;;;;;;;8.63;5.22;;;;;;;26.46;51.48;100090.50;4266890;33;34678;-77
2022/08/30 08:08:50;;;;;;;9.63;4.60;;;;;;;26.54;52.72;100090.53;4270655;33;34966;-76
2022/08/30 08:11:40;;;;;;;10.20;5.65;;;;;;;26.46;50.45;100084.91;4270564;33;34623;-77
2022/08/30 08:14:27;;;;;;;6.95;4.97;;;;;;;26.44;52.43;100092.94;4270573;33;35092;-77
2022/08/30 08:17:13;;;;;;;8.38;4.80;;;;;;;26.72;50.03;100091.22;4270156;33;35004;-77
2022/08/30 08:19:59;;;;;;;10.05;5.35;;;;;;;26.42;50.76;100089.75;4269931;33;36042;-78
2022/08/30 08:22:46;;;;;;;8.02;5.12;;;;;;;26.37;52.34;100090.16;4270406;33;34650;-76
2022/08/30 08:25:34;;;;;;;9.27;5.22;;;;;;;25.79;50.32;100095.13;4270586;33;33782;-76
2022/08/30 08:28:20;;;;;;;8.15;4.97;;;;;;;26.77;50.37;100092.81;4270160;33;35302;-76
2022/08/30 08:31:22;;;;;;;9.85;5.12;;;;;;;26.03;52.22;100090.69;4270707;33;35005;-78
2022/08/30 08:34:12;;;;;;;9.48;4.68;;;;;;;26.16;50.33;100095.88;4270468;33;34653;-77
2022/08/30 08:36:59;;;;;;;8.73;4.57;;;;;;;26.60;49.77;100095.31;4270568;33;34830;-78
2022/08/30 08:39:45;;;;;;;9.30;4.68;;;;;;;26.83;51.53;100093.97;4258050;33;34272;-76
2022/08/30 08:42:45;;;;;;;8.82;4.87;;;;;;;26.85;51.57;100100.00;4267796;33;88375;-76
2022/08/30 08:45:45;;;;;;;6.10;4.55;;;;;;;26.91;50.51;100099.16;4267560;33;34621;-76
2022/08/30 08:48:37;;;;;;;10.60;5.07;;;;;;;26.83;50.01;100097.59;4255332;33;34186;-76
2022/08/30 08:54:57;;;;;;;6.75;4.37;;;;;;;26.74;49.90;100091.63;4268457;33;34850;-76
2022/08/30 08:57:44;;;;;;;9.38;4.75;;;;;;;27.40;46.76;100098.44;4258576;33;35414;-76
2022/08/30 09:00:31;;;;;;;8.25;4.70;;;;;;;27.63;47.62;100092.19;4268881;33;35288;-76
2022/08/30 09:03:20;;;;;;;7.20;4.82;;;;;;;27.65;45.73;100092.59;4259379;33;34428;-76
2022/08/30 09:06:14;;;;;;;7.28;4.68;;;;;;;26.83;46.12;100094.78;4268434;33;36026;-76
2022/08/30 09:09:00;;;;;;;8.15;5.45;;;;;;;26.94;49.10;100091.09;4267829;33;34745;-76
2022/08/30 09:11:48;;;;;;;9.73;5.32;;;;;;;27.63;46.86;100081.72;4267424;33;33768;-79
2022/08/30 09:14:49;;;;;;;8.52;4.85;;;;;;;28.03;43.97;100084.97;4267978;33;34625;-76
2022/08/30 09:17:55;;;;;;;9.80;5.75;;;;;;;27.31;47.65;100080.00;4259824;33;35171;-81
2022/08/30 09:20:47;;;;;;;7.80;5.43;;;;;;;27.14;46.92;100081.72;4269716;33;35557;-80
2022/08/30 09:23:33;;;;;;;10.32;5.40;;;;;;;27.07;46.02;100076.16;4261428;33;34242;-80
2022/08/30 09:26:30;;;;;;;9.25;5.18;;;;;;;27.10;48.71;100082.97;4271262;33;35185;-80
2022/08/30 09:29:18;;;;;;;7.85;5.47;;;;;;;26.59;48.99;100070.44;4260687;33;34897;-79
2022/08/30 09:32:05;;;;;;;9.35;5.78;;;;;;;26.91;47.11;100070.22;4270766;33;35574;-79
2022/08/30 09:35:19;;;;;;;8.75;5.45;;;;;;;26.85;46.56;100078.31;4269928;33;34158;-80
2022/08/30 09:38:09;;;;;;;7.82;5.32;;;;;;;27.31;46.54;100060.31;4258911;33;34533;-79
2022/08/30 09:41:01;;;;;;;9.07;5.20;;;;;;;27.92;44.77;100056.94;4260279;33;35644;-77
2022/08/30 09:44:23;;;;;;;9.10;5.40;;;;;;;27.78;45.30;100055.03;4271140;33;34269;-77
2022/08/30 09:47:20;;;;;;;9.63;5.80;;;;;;;28.38;43.14;100057.59;4267940;33;34165;-76
2022/08/30 09:50:16;;;;;;;8.77;5.35;;;;;;;27.32;45.63;100056.31;4271245;33;35292;-77
2022/08/30 09:53:24;;;;;;;7.80;5.40;;;;;;;27.50;46.56;100053.31;4257715;33;35855;-76
2022/08/30 09:56:13;;;;;;;7.78;5.45;;;;;;;28.73;43.22;100044.25;4259667;33;35716;-76
2022/08/30 09:59:15;;;;;;;6.47;5.28;;;;;;;28.62;44.94;100041.59;4266631;33;35274;-76
2022/08/30 10:02:11;;;;;;;8.73;6.15;;;;;;;28.81;42.78;100038.09;4260179;33;34683;-76
2022/08/30 10:05:02;;;;;;;8.30;5.60;;;;;;;26.16;49.76;100048.13;4269187;33;35710;-76
2022/08/30 10:07:52;;;;;;;7.93;5.57;;;;;;;27.05;47.66;100041.22;4259269;33;34263;-77
2022/08/30 10:10:50;;;;;;;10.13;5.87;;;;;;;28.00;45.82;100027.44;4269963;33;33202;-76
2022/08/30 10:13:45;;;;;;;8.73;5.55;;;;;;;27.28;45.81;100047.06;4270201;33;34691;-76
2022/08/30 10:16:58;;;;;;;7.65;5.65;;;;;;;28.70;44.44;100034.63;4271106;33;34800;-77
2022/08/30 10:20:03;;;;;;;9.77;5.65;;;;;;;28.54;43.77;100031.62;4257355;33;34194;-77
2022/08/30 10:22:49;;;;;;;10.05;5.85;;;;;;;28.20;45.48;100024.78;4258883;33;34100;-77
2022/08/30 10:25:48;;;;;;;8.25;5.85;;;;;;;28.84;43.04;100022.34;4271161;33;35603;-78
2022/08/30 10:28:45;;;;;;;10.45;5.80;;;;;;;29.33;43.47;100029.19;4270658;33;35001;-77
2022/08/30 10:31:52;;;;;;;9.60;5.53;;;;;;;28.58;44.06;100024.72;4258692;33;35491;-77
2022/08/30 10:34:43;;;;;;;8.20;5.82;;;;;;;29.18;42.48;100018.59;4260753;33;34110;-77
2022/08/30 10:37:31;;;;;;;9.25;5.85;;;;;;;29.45;44.14;100013.66;4260170;33;35750;-77
2022/08/30 10:43:48;;;;;;;9.13;6.18;;;;;;;30.54;42.02;100004.62;4256166;33;35388;-75
2022/08/30 10:47:02;;;;;;;9.43;5.97;;;;;;;31.17;38.52;100012.84;4259946;33;34062;-77
2022/08/30 10:49:52;;;;;;;7.87;5.95;;;;;;;28.91;43.50;99996.81;4271875;33;35236;-76
2022/08/30 10:52:46;;;;;;;10.23;5.93;;;;;;;29.44;42.84;99995.13;4272967;33;35039;-75
2022/08/30 10:55:43;;;;;;;9.25;5.72;;;;;;;29.76;43.79;100000.19;4256994;33;35311;-76
2022/08/30 10:58:39;;;;;;;9.45;6.18;;;;;;;31.18;38.81;100000.28;4271041;33;34337;-76
2022/08/30 11:01:46;;;;;;;7.43;5.97;;;;;;;29.60;41.97;99991.63;4257712;33;34617;-78
2022/08/30 11:05:13;;;;;;;9.70;5.40;;;;;;;29.11;44.67;100000.53;4269493;33;35737;-76
2022/08/30 11:08:26;;;;;;;10.80;6.22;;;;;;;29.58;40.81;99991.25;4259895;33;34637;-77
2022/08/30 11:11:38;;;;;;;7.90;5.45;;;;;;;29.51;42.62;99988.56;4259368;33;34963;-76
2022/08/30 11:14:26;;;;;;;10.30;6.12;;;;;;;31.18;37.02;99993.84;4269981;33;34290;-77
2022/08/30 11:17:26;;;;;;;6.85;5.18;;;;;;;29.61;41.59;99984.75;4269517;33;35371;-76
2022/08/30 11:20:33;;;;;;;8.68;5.65;;;;;;;28.59;45.12;99984.03;4257960;33;34669;-76
2022/08/30 11:23:27;;;;;;;10.75;6.37;;;;;;;30.85;40.86;99979.69;4269919;33;34151;-76
2022/08/30 11:26:58;;;;;;;9.77;5.72;;;;;;;29.95;40.85;99975.22;4258142;33;34216;-76
2022/08/30 11:29:45;;;;;;;9.80;5.90;;;;;;;31.74;38.22;99970.91;4270123;33;37235;-76
2022/08/30 11:33:10;;;;;;;10.68;5.87;;;;;;;32.11;38.13;99958.09;4260676;33;34635;-76
2022/08/30 11:35:56;;;;;;;7.18;5.18;;;;;;;31.11;39.46;99964.47;4258872;33;35166;-77
2022/08/30 11:38:43;;;;;;;9.10;5.25;;;;;;;32.36;36.42;99959.34;4271049;33;34312;-77
2022/08/30 11:41:42;;;;;;;8.52;5.43;;;;;;;33.66;33.58;99948.91;4270428;33;34467;-76
2022/08/30 11:44:33;;;;;;;8.02;5.00;;;;;;;32.99;35.59;99955.75;4258318;33;34189;-76
2022/08/30 11:47:39;;;;;;;12.25;5.70;;;;;;;33.59;33.08;99950.00;4268655;33;34416;-76
2022/08/30 11:50:46;;;;;;;9.75;5.18;;;;;;;31.80;36.82;99949.28;4269013;33;34613;-77
2022/08/30 11:53:49;;;;;;;11.23;6.75;;;;;;;32.64;34.17;99938.59;4269514;33;34612;-77
2022/08/30 11:57:00;;;;;;;9.63;5.60;;;;;;;31.35;36.36;99938.78;4258043;33;34804;-78
2022/08/30 12:00:24;;;;;;;8.23;5.80;;;;;;;31.78;35.48;99944.03;4270480;33;34381;-77
2022/08/30 12:03:13;;;;;;;7.15;5.75;;;;;;;30.97;37.63;99938.59;4264942;33;34233;-76
2022/08/30 12:06:02;;;;;;;7.45;5.35;;;;;;;31.79;35.30;99928.66;4269968;33;34893;-75
2022/08/30 12:08:50;;;;;;;11.80;5.53;;;;;;;32.37;35.71;99921.25;4258532;33;34282;-75
2022/08/30 12:12:26;;;;;;;7.60;5.30;;;;;;;33.16;33.78;99925.16;4270908;33;34790;-75
2022/08/30 12:15:47;;;;;;;10.40;5.62;;;;;;;34.24;30.87;99922.00;4225460;33;34195;-75
2022/08/30 12:18:45;;;;;;;7.03;5.12;;;;;;;31.75;33.94;99924.34;4269749;33;34894;-75
2022/08/30 12:21:34;;;;;;;8.13;5.82;;;;;;;31.65;34.40;99923.41;4270911;33;35505;-75
2022/08/30 12:24:43;;;;;;;7.18;5.20;;;;;;;30.66;36.55;99916.31;4259739;33;34059;-75
2022/08/30 12:27:32;;;;;;;8.95;5.43;;;;;;;32.07;33.56;99902.75;4257723;33;35652;-74
2022/08/30 12:30:26;;;;;;;6.95;5.40;;;;;;;33.46;30.86;99906.62;4259455;33;35904;-75
2022/08/30 12:33:23;;;;;;;6.45;4.85;;;;;;;33.57;31.00;99901.34;4249613;33;35421;-75
2022/08/30 12:36:15;;;;;;;;;;;;;;;34.15;30.11;99894.28;4252174;33;33883;-75
2022/08/30 12:39:25;;;;;;;7.97;5.82;;;;;;;31.89;34.38;99886.28;4259827;33;34379;-75
2022/08/30 12:42:21;;;;;;;6.57;5.05;;;;;;;30.26;38.02;99893.84;4270206;33;35015;-74
2022/08/30 12:45:13;;;;;;;11.48;5.93;;;;;;;31.08;37.21;99879.66;4269491;33;34682;-75
2022/08/30 12:48:03;;;;;;;11.25;5.47;;;;;;;32.15;34.72;99876.56;4259331;33;34129;-75
2022/08/30 12:50:53;;;;;;;6.40;5.07;;;;;;;29.87;38.43;99878.53;4258628;33;35197;-75
2022/08/30 12:53:41;;;;;;;7.03;5.30;;;;;;;31.99;34.21;99862.50;4269384;33;35009;-75
2022/08/30 12:56:46;;;;;;;5.60;4.72;;;;;;;33.08;31.99;99862.16;4267730;33;34673;-75
2022/08/30 12:59:46;;;;;;;7.28;5.18;;;;;;;33.33;32.61;99857.63;4270049;33;34318;-75
2022/08/30 13:02:51;;;;;;;6.00;4.70;;;;;;;33.18;31.51;99860.16;4268280;33;35283;-75
2022/08/30 13:05:40;;;;;;;7.97;5.12;;;;;;;34.25;30.22;99856.09;4268695;33;34881;-75
2022/08/30 13:08:35;;;;;;;7.15;5.15;;;;;;;33.51;30.02;99848.44;4269495;33;35102;-75
2022/08/30 13:11:25;;;;;;;6.43;4.80;;;;;;;32.26;32.66;99853.56;4269834;33;34252;-75
2022/08/30 13:14:38;;;;;;;5.20;4.22;;;;;;;33.52;30.54;99850.03;4259640;33;34647;-75
2022/08/30 13:17:28;;;;;;;5.47;4.53;;;;;;;34.57;29.56;99842.63;4269618;33;34524;-75
2022/08/30 13:20:14;;;;;;;9.88;4.85;;;;;;;32.90;30.45;99834.37;4268529;33;34722;-76
2022/08/30 13:23:07;;;;;;;5.93;4.70;;;;;;;34.78;28.89;99845.78;4268483;33;34228;-76
2022/08/30 13:25:53;;;;;;;7.70;4.20;;;;;;;35.17;29.80;99832.72;4269433;33;34896;-76
2022/08/30 13:28:47;;;;;;;9.52;4.62;;;;;;;34.80;27.68;99829.06;4268924;33;35124;-75